createdAt,value
2023-02-20T00:00:42.087Z,6.00
2023-02-20T00:01:45.052Z,6.00
2023-02-20T00:02:47.936Z,6.57
2023-02-20T00:03:51.292Z,7.00
2023-02-20T00:04:54.271Z,6.57
2023-02-20T00:05:57.197Z,5.00
2023-02-20T00:07:00.190Z,4.71
2023-02-20T00:08:03.092Z,3.71
2023-02-20T00:09:05.918Z,3.67
2023-02-20T00:10:08.777Z,3.00
2023-02-20T00:11:11.714Z,3.43
2023-02-20T00:12:14.654Z,4.14
2023-02-20T00:13:17.264Z,3.00
2023-02-20T00:14:20.108Z,3.33
2023-02-20T00:15:22.972Z,3.50
2023-02-20T00:16:26.235Z,4.00
2023-02-20T00:17:28.985Z,3.00
2023-02-20T00:18:32.004Z,3.33
2023-02-20T00:19:34.817Z,4.43
2023-02-20T00:20:37.688Z,4.00
2023-02-20T00:21:40.570Z,3.83
2023-02-20T00:22:43.461Z,3.33
2023-02-20T00:23:46.311Z,4.43
2023-02-20T00:24:49.243Z,4.67
2023-02-20T00:25:51.947Z,4.00
2023-02-20T00:26:54.926Z,4.00
2023-02-20T00:27:57.749Z,3.57
2023-02-20T00:29:00.717Z,4.00
2023-02-20T00:30:03.797Z,4.00
2023-02-20T00:31:06.790Z,3.43
2023-02-20T00:32:09.727Z,4.33
2023-02-20T00:33:12.671Z,4.43
2023-02-20T00:34:15.495Z,3.83
2023-02-20T00:35:18.293Z,3.33
2023-02-20T00:36:21.126Z,3.67
2023-02-20T00:37:23.976Z,3.43
2023-02-20T00:38:26.816Z,4.00
2023-02-20T00:39:29.687Z,4.00
2023-02-20T00:40:32.597Z,4.00
2023-02-20T00:41:35.527Z,4.33
2023-02-20T00:42:38.361Z,3.00
2023-02-20T00:43:41.291Z,3.00
2023-02-20T00:44:44.216Z,3.00
2023-02-20T00:45:47.103Z,3.00
2023-02-20T00:46:49.855Z,2.83
2023-02-20T00:47:52.675Z,3.00
2023-02-20T00:48:55.427Z,2.67
2023-02-20T00:49:58.294Z,3.00
2023-02-20T00:51:01.177Z,2.43
2023-02-20T00:52:04.050Z,2.86
2023-02-20T00:53:06.914Z,2.33
2023-02-20T00:54:09.761Z,2.00
2023-02-20T00:55:12.678Z,2.00
2023-02-20T00:56:15.520Z,2.33
2023-02-20T00:57:18.375Z,2.83
2023-02-20T00:58:21.444Z,2.29
2023-02-20T00:59:24.395Z,1.29
2023-02-20T01:00:27.307Z,2.14
2023-02-20T01:01:30.225Z,2.00
2023-02-20T01:02:33.103Z,2.00
2023-02-20T01:03:36.190Z,2.00
2023-02-20T01:04:39.142Z,1.86
2023-02-20T01:05:42.053Z,1.57
2023-02-20T01:06:44.969Z,2.17
2023-02-20T01:07:47.940Z,2.33
2023-02-20T01:08:58.686Z,2.00
2023-02-20T01:10:01.947Z,0.43
2023-02-20T01:11:05.251Z,1.43
2023-02-20T01:22:43.117Z,2.00
2023-02-20T01:23:46.391Z,0.86
2023-02-20T01:24:49.690Z,1.43
2023-02-20T01:25:53.057Z,2.00
2023-02-20T01:26:56.543Z,1.57
2023-02-20T01:27:59.699Z,1.71
2023-02-20T01:29:03.143Z,2.00
2023-02-20T01:30:06.412Z,2.00
2023-02-20T01:31:09.873Z,1.57
2023-02-20T01:32:13.096Z,1.00
2023-02-20T01:33:16.363Z,1.43
2023-02-20T01:34:19.846Z,0.67
2023-02-20T01:35:22.982Z,0.57
2023-02-20T01:36:26.212Z,0.14
2023-02-20T01:37:29.555Z,1.00
2023-02-20T01:38:32.913Z,1.33
2023-02-20T01:39:36.095Z,1.67
2023-02-20T01:40:38.943Z,2.00
2023-02-20T01:41:42.253Z,1.33
2023-02-20T01:42:45.494Z,0.57
2023-02-20T01:43:48.884Z,1.00
2023-02-20T01:44:52.172Z,0.71
2023-02-20T01:45:55.452Z,0.43
2023-02-20T01:46:58.656Z,1.00
2023-02-20T01:48:02.019Z,0.71
2023-02-20T01:49:05.300Z,0.57
2023-02-20T01:50:08.604Z,0.43
2023-02-20T01:51:11.785Z,0.14
2023-02-20T01:52:15.081Z,0.00
2023-02-20T01:53:18.237Z,0.00
2023-02-20T01:54:21.418Z,0.00
2023-02-20T01:55:24.700Z,0.00
2023-02-20T01:56:29.321Z,0.00
2023-02-20T01:57:32.702Z,0.00
2023-02-20T01:58:36.285Z,0.00
2023-02-20T01:59:39.780Z,0.00
2023-02-20T02:00:43.211Z,0.00
2023-02-20T02:01:47.140Z,0.00
2023-02-20T02:02:50.578Z,0.00
2023-02-20T02:03:54.255Z,0.00
2023-02-20T02:04:57.632Z,0.00
2023-02-20T02:06:01.027Z,0.00
2023-02-20T02:07:04.632Z,0.29
2023-02-20T02:08:08.095Z,0.13
2023-02-20T02:09:11.699Z,0.00
2023-02-20T02:10:15.294Z,0.50
2023-02-20T02:11:18.776Z,0.14
2023-02-20T02:12:22.170Z,0.50
2023-02-20T02:13:25.655Z,0.43
2023-02-20T02:14:29.146Z,0.00
2023-02-20T02:15:32.638Z,0.00
2023-02-20T02:16:36.130Z,0.14
2023-02-20T02:17:39.702Z,0.88
2023-02-20T02:18:43.193Z,1.00
2023-02-20T02:19:46.809Z,0.43
2023-02-20T02:20:50.301Z,0.00
2023-02-20T02:21:53.772Z,0.00
2023-02-20T02:22:57.364Z,0.43
2023-02-20T02:24:00.753Z,0.86
2023-02-20T02:25:04.144Z,1.00
2023-02-20T02:26:07.512Z,1.00
2023-02-20T02:27:10.911Z,0.13
2023-02-20T02:28:14.309Z,0.43
2023-02-20T02:29:17.781Z,0.43
2023-02-20T02:30:21.410Z,0.50
2023-02-20T02:31:25.025Z,0.00
2023-02-20T02:32:28.754Z,0.25
2023-02-20T02:33:32.348Z,0.57
2023-02-20T02:34:35.732Z,0.43
2023-02-20T02:35:39.060Z,1.00
2023-02-20T02:36:42.407Z,1.00
2023-02-20T02:37:45.995Z,0.57
2023-02-20T02:38:49.486Z,0.14
2023-02-20T02:39:52.969Z,0.86
2023-02-20T02:40:56.327Z,0.57
2023-02-20T02:42:00.049Z,1.00
2023-02-20T02:43:03.135Z,0.43
2023-02-20T02:44:06.533Z,0.43
2023-02-20T02:45:10.112Z,0.57
2023-02-20T02:46:13.878Z,0.43
2023-02-20T02:47:17.805Z,0.88
2023-02-20T02:48:21.505Z,1.00
2023-02-20T02:49:24.904Z,1.00
2023-02-20T02:50:28.175Z,1.00
2023-02-20T02:51:31.547Z,1.00
2023-02-20T02:52:34.950Z,0.00
2023-02-20T02:53:38.633Z,0.00
2023-02-20T02:54:42.442Z,0.43
2023-02-20T02:55:45.919Z,0.50
2023-02-20T02:56:49.320Z,0.71
2023-02-20T02:57:52.803Z,0.43
2023-02-20T02:58:56.392Z,0.57
2023-02-20T02:59:59.888Z,0.29
2023-02-20T03:01:03.409Z,1.00
2023-02-20T03:02:06.873Z,0.57
2023-02-20T03:03:10.297Z,0.43
2023-02-20T03:04:13.658Z,0.57
2023-02-20T03:05:17.338Z,1.00
2023-02-20T03:06:20.815Z,0.57
2023-02-20T03:07:24.180Z,0.00
2023-02-20T03:08:27.697Z,0.00
2023-02-20T03:09:31.385Z,0.43
2023-02-20T03:10:34.747Z,0.13
2023-02-20T03:11:38.094Z,0.43
2023-02-20T03:12:41.222Z,0.71
2023-02-20T03:13:44.660Z,0.43
2023-02-20T03:14:48.014Z,1.00
2023-02-20T03:15:51.309Z,0.71
2023-02-20T03:16:54.800Z,0.00
2023-02-20T03:17:57.768Z,1.00
2023-02-20T03:19:01.555Z,0.67
2023-02-20T03:20:04.956Z,0.57
2023-02-20T03:21:08.576Z,0.57
2023-02-20T03:22:11.924Z,0.86
2023-02-20T03:23:15.242Z,0.57
2023-02-20T03:24:18.607Z,0.50
2023-02-20T03:25:22.086Z,0.43
2023-02-20T03:26:25.477Z,1.00
2023-02-20T03:27:28.856Z,1.00
2023-02-20T03:28:32.604Z,1.00
2023-02-20T03:29:36.859Z,1.00
2023-02-20T03:30:40.484Z,0.50
2023-02-20T03:31:43.926Z,0.86
2023-02-20T03:32:50.081Z,0.57
2023-02-20T03:33:53.443Z,0.75
2023-02-20T03:34:56.971Z,1.00
2023-02-20T03:36:00.375Z,1.00
2023-02-20T03:37:03.736Z,2.00
2023-02-20T03:38:06.791Z,1.57
2023-02-20T03:39:09.904Z,0.67
2023-02-20T03:40:13.087Z,1.00
2023-02-20T03:41:16.370Z,1.67
2023-02-20T03:42:19.554Z,1.00
2023-02-20T03:43:22.731Z,1.43
2023-02-20T03:44:25.831Z,1.00
2023-02-20T03:45:29.481Z,1.00
2023-02-20T03:47:40.823Z,2.00
2023-02-20T03:48:43.905Z,1.57
2023-02-20T03:49:47.024Z,1.57
2023-02-20T03:50:50.228Z,1.00
2023-02-20T03:51:53.321Z,1.33
2023-02-20T03:52:56.701Z,0.50
2023-02-20T03:54:00.190Z,0.71
2023-02-20T03:55:03.673Z,1.00
2023-02-20T03:56:06.986Z,1.00
2023-02-20T03:57:10.028Z,0.33
2023-02-20T03:58:13.233Z,0.50
2023-02-20T03:59:16.407Z,1.14
2023-02-20T04:00:19.500Z,1.43
2023-02-20T04:01:23.111Z,1.00
2023-02-20T04:02:26.427Z,0.86
2023-02-20T04:03:29.950Z,1.00
2023-02-20T04:04:33.232Z,1.00
2023-02-20T04:05:36.408Z,0.57
2023-02-20T04:06:40.031Z,0.50
2023-02-20T04:07:43.371Z,0.43
2023-02-20T04:08:46.711Z,0.57
2023-02-20T04:09:49.970Z,0.00
2023-02-20T04:10:53.250Z,0.86
2023-02-20T04:11:56.643Z,0.43
2023-02-20T04:13:00.052Z,0.43
2023-02-20T04:14:03.509Z,0.57
2023-02-20T04:15:06.522Z,0.43
2023-02-20T04:16:09.564Z,0.29
2023-02-20T04:17:12.954Z,0.43
2023-02-20T04:18:16.450Z,0.43
2023-02-20T04:19:19.729Z,0.43
2023-02-20T04:20:22.908Z,0.00
2023-02-20T04:21:25.979Z,0.00
2023-02-20T04:22:29.433Z,0.00
2023-02-20T04:23:32.549Z,0.43
2023-02-20T04:24:35.837Z,1.00
2023-02-20T04:25:39.192Z,0.86
2023-02-20T04:26:42.291Z,0.57
2023-02-20T04:27:45.494Z,0.17
2023-02-20T04:28:48.764Z,0.00
2023-02-20T04:29:52.170Z,0.00
2023-02-20T04:30:55.361Z,0.43
2023-02-20T04:31:58.666Z,0.00
2023-02-20T04:33:02.372Z,0.00
2023-02-20T04:34:05.593Z,0.00
2023-02-20T04:35:08.878Z,0.00
2023-02-20T04:36:12.407Z,0.00
2023-02-20T04:37:15.964Z,0.00
2023-02-20T04:38:22.490Z,0.00
2023-02-20T04:39:25.910Z,0.25
2023-02-20T04:40:29.188Z,0.00
2023-02-20T04:41:32.575Z,0.00
2023-02-20T04:42:35.867Z,0.00
2023-02-20T04:43:39.445Z,0.00
2023-02-20T04:44:42.799Z,0.00
2023-02-20T04:45:46.191Z,0.00
2023-02-20T04:46:49.290Z,0.00
2023-02-20T04:47:52.545Z,0.00
2023-02-20T04:48:56.382Z,0.00
2023-02-20T04:49:59.670Z,0.00
2023-02-20T04:51:03.198Z,0.00
2023-02-20T04:52:06.555Z,0.00
2023-02-20T04:53:10.029Z,0.00
2023-02-20T04:54:13.482Z,0.00
2023-02-20T04:55:16.626Z,0.00
2023-02-20T04:56:19.566Z,0.00
2023-02-20T04:58:40.287Z,0.00
2023-02-20T04:59:43.793Z,0.00
2023-02-20T05:00:47.265Z,0.00
2023-02-20T05:01:50.613Z,0.00
2023-02-20T05:02:54.261Z,0.00
2023-02-20T05:03:57.648Z,0.00
2023-02-20T05:05:01.086Z,0.00
2023-02-20T05:06:04.306Z,0.00
2023-02-20T05:07:07.473Z,0.00
2023-02-20T05:08:10.554Z,0.00
2023-02-20T05:09:13.832Z,0.00
2023-02-20T05:10:17.142Z,0.00
2023-02-20T05:11:20.234Z,0.00
2023-02-20T05:12:23.482Z,0.00
2023-02-20T05:13:26.870Z,0.00
2023-02-20T05:14:29.850Z,0.00
2023-02-20T05:15:33.217Z,0.00
2023-02-20T05:16:36.332Z,0.00
2023-02-20T05:17:39.508Z,0.00
2023-02-20T05:18:42.828Z,0.00
2023-02-20T05:19:45.969Z,0.00
2023-02-20T05:20:49.148Z,0.00
2023-02-20T05:21:52.481Z,0.00
2023-02-20T05:22:55.938Z,0.00
2023-02-20T05:23:58.995Z,0.00
2023-02-20T05:25:02.286Z,0.00
2023-02-20T05:26:05.492Z,0.00
2023-02-20T05:27:08.573Z,0.00
2023-02-20T05:28:11.832Z,0.00
2023-02-20T05:29:15.007Z,0.00
2023-02-20T05:30:18.323Z,0.00
2023-02-20T05:31:21.470Z,0.00
2023-02-20T05:32:24.739Z,0.00
2023-02-20T05:33:27.952Z,0.00
2023-02-20T05:34:31.350Z,0.00
2023-02-20T05:35:34.512Z,0.00
2023-02-20T05:36:37.740Z,0.00
2023-02-20T05:37:40.873Z,0.00
2023-02-20T05:38:44.274Z,0.00
2023-02-20T05:39:47.648Z,0.00
2023-02-20T05:40:50.841Z,0.00
2023-02-20T05:41:54.215Z,0.00
2023-02-20T05:42:57.502Z,0.00
2023-02-20T05:44:00.791Z,0.00
2023-02-20T05:45:03.869Z,0.00
2023-02-20T05:46:07.065Z,0.00
2023-02-20T05:47:10.277Z,0.00
2023-02-20T05:48:13.661Z,0.00
2023-02-20T05:49:16.789Z,0.00
2023-02-20T05:50:20.099Z,0.00
2023-02-20T05:51:23.358Z,0.00
2023-02-20T05:52:26.682Z,0.00
2023-02-20T05:53:29.912Z,0.00
2023-02-20T05:54:33.124Z,0.00
2023-02-20T05:55:36.705Z,0.00
2023-02-20T05:56:39.989Z,0.00
2023-02-20T05:57:43.280Z,0.00
2023-02-20T05:58:46.687Z,0.00
2023-02-20T05:59:49.963Z,0.00
2023-02-20T06:00:53.170Z,0.00
2023-02-20T06:01:56.317Z,0.00
2023-02-20T06:02:59.928Z,0.00
2023-02-20T06:04:03.180Z,0.00
2023-02-20T06:05:06.876Z,0.00
2023-02-20T06:06:10.257Z,0.00
2023-02-20T06:07:13.582Z,0.00
2023-02-20T06:08:17.088Z,0.00
2023-02-20T06:09:20.094Z,0.00
2023-02-20T06:10:23.109Z,0.00
2023-02-20T06:11:26.252Z,0.00
2023-02-20T06:12:29.892Z,0.00
2023-02-20T06:13:33.050Z,0.00
2023-02-20T06:14:36.328Z,0.00
2023-02-20T06:15:39.935Z,0.00
2023-02-20T06:16:43.411Z,0.00
2023-02-20T06:17:46.907Z,0.00
2023-02-20T06:18:50.396Z,0.00
2023-02-20T06:19:53.684Z,0.00
2023-02-20T06:20:57.316Z,0.00
2023-02-20T06:22:00.463Z,0.00
2023-02-20T06:23:03.877Z,0.00
2023-02-20T06:24:07.214Z,0.00
2023-02-20T06:25:11.502Z,0.00
2023-02-20T06:26:14.774Z,0.00
2023-02-20T06:27:18.197Z,0.00
2023-02-20T06:28:21.597Z,0.00
2023-02-20T06:29:24.770Z,0.00
2023-02-20T06:30:27.989Z,0.00
2023-02-20T06:31:31.253Z,0.00
2023-02-20T06:32:35.217Z,0.00
2023-02-20T06:33:38.325Z,0.00
2023-02-20T06:34:41.508Z,0.00
2023-02-20T06:35:44.599Z,0.00
2023-02-20T06:36:47.878Z,0.00
2023-02-20T06:37:51.241Z,0.00
2023-02-20T06:38:56.607Z,0.00
2023-02-20T06:39:58.841Z,0.00
2023-02-20T06:41:02.020Z,0.00
2023-02-20T06:42:05.427Z,0.00
2023-02-20T06:43:08.811Z,0.00
2023-02-20T06:44:12.217Z,0.00
2023-02-20T06:45:15.699Z,0.00
2023-02-20T06:46:19.087Z,0.00
2023-02-20T06:47:22.370Z,0.00
2023-02-20T06:48:25.853Z,0.00
2023-02-20T06:49:29.232Z,0.00
2023-02-20T06:50:32.831Z,0.00
2023-02-20T06:51:36.334Z,0.00
2023-02-20T06:52:39.828Z,0.00
2023-02-20T06:53:43.294Z,0.00
2023-02-20T06:54:46.980Z,0.00
2023-02-20T06:55:50.678Z,0.00
2023-02-20T06:56:53.992Z,0.00
2023-02-20T06:57:57.246Z,0.00
2023-02-20T06:59:00.736Z,0.00
2023-02-20T07:00:04.120Z,0.00
2023-02-20T07:01:07.566Z,0.00
2023-02-20T07:02:10.973Z,0.00
2023-02-20T07:03:14.278Z,0.00
2023-02-20T07:04:17.588Z,0.00
2023-02-20T07:05:21.157Z,0.00
2023-02-20T07:06:24.962Z,0.00
2023-02-20T07:07:28.135Z,0.00
2023-02-20T07:08:31.656Z,0.00
2023-02-20T07:09:35.207Z,0.00
2023-02-20T07:10:38.566Z,0.00
2023-02-20T07:11:42.085Z,0.00
2023-02-20T07:12:45.467Z,0.00
2023-02-20T07:13:49.277Z,0.00
2023-02-20T07:14:52.663Z,0.00
2023-02-20T07:22:44.934Z,0.00
2023-02-20T07:23:51.295Z,0.00
2023-02-20T07:24:54.676Z,0.00
2023-02-20T07:25:58.469Z,0.00
2023-02-20T07:27:01.649Z,0.00
2023-02-20T07:28:05.137Z,0.00
2023-02-20T07:29:08.448Z,0.00
2023-02-20T07:30:11.843Z,0.00
2023-02-20T07:31:15.322Z,0.00
2023-02-20T07:32:18.831Z,0.00
2023-02-20T07:33:22.390Z,0.00
2023-02-20T07:34:25.763Z,0.00
2023-02-20T07:35:29.186Z,0.00
2023-02-20T07:36:33.071Z,0.00
2023-02-20T07:37:36.647Z,0.00
2023-02-20T07:38:40.053Z,0.00
2023-02-20T07:39:43.377Z,0.00
2023-02-20T07:40:46.599Z,0.00
2023-02-20T07:41:49.777Z,0.00
2023-02-20T07:42:53.314Z,0.00
2023-02-20T07:43:56.757Z,0.00
2023-02-20T07:45:00.251Z,0.00
2023-02-20T07:46:03.483Z,0.00
2023-02-20T07:47:06.824Z,0.00
2023-02-20T07:48:10.200Z,0.00
2023-02-20T07:49:13.596Z,0.00
2023-02-20T07:50:17.392Z,0.00
2023-02-20T07:51:21.087Z,0.00
2023-02-20T07:52:24.635Z,0.00
2023-02-20T07:53:27.982Z,0.00
2023-02-20T07:54:31.459Z,0.00
2023-02-20T07:55:35.052Z,0.00
2023-02-20T07:56:38.320Z,0.00
2023-02-20T07:57:41.705Z,0.00
2023-02-20T07:58:45.292Z,0.00
2023-02-20T07:59:48.800Z,0.00
2023-02-20T08:00:52.692Z,0.00
2023-02-20T08:01:56.259Z,0.00
2023-02-20T08:02:59.759Z,0.00
2023-02-20T08:04:03.377Z,0.00
2023-02-20T08:05:06.619Z,0.00
2023-02-20T08:06:09.826Z,0.00
2023-02-20T08:07:13.244Z,0.00
2023-02-20T08:08:16.721Z,0.00
2023-02-20T08:09:19.998Z,0.00
2023-02-20T08:10:23.345Z,0.00
2023-02-20T08:11:26.660Z,0.00
2023-02-20T08:12:30.144Z,0.00
2023-02-20T08:13:33.426Z,0.00
2023-02-20T08:14:36.580Z,0.00
2023-02-20T08:15:39.991Z,0.00
2023-02-20T08:16:43.548Z,0.00
2023-02-20T08:17:47.600Z,0.00
2023-02-20T08:18:51.209Z,0.00
2023-02-20T08:19:54.562Z,0.00
2023-02-20T08:20:58.070Z,0.00
2023-02-20T08:22:01.762Z,0.00
2023-02-20T08:23:05.135Z,0.00
2023-02-20T08:24:08.521Z,0.00
2023-02-20T08:25:12.118Z,0.00
2023-02-20T08:26:15.758Z,0.00
2023-02-20T08:27:19.400Z,0.00
2023-02-20T08:28:22.973Z,0.00
2023-02-20T08:29:26.416Z,0.00
2023-02-20T08:30:30.015Z,0.00
2023-02-20T08:31:33.624Z,0.00
2023-02-20T08:32:37.282Z,0.00
2023-02-20T08:33:40.765Z,0.00
2023-02-20T08:34:44.130Z,0.00
2023-02-20T08:35:47.655Z,0.00
2023-02-20T08:36:51.135Z,0.00
2023-02-20T08:37:54.406Z,0.00
2023-02-20T08:38:57.831Z,0.00
2023-02-20T08:40:01.266Z,0.29
2023-02-20T08:41:04.672Z,0.14
2023-02-20T08:42:07.948Z,0.00
2023-02-20T08:43:11.218Z,0.43
2023-02-20T08:44:14.643Z,0.57
2023-02-20T08:45:17.917Z,0.00
2023-02-20T08:46:21.329Z,0.00
2023-02-20T08:47:24.762Z,0.00
2023-02-20T08:48:28.441Z,0.00
2023-02-20T08:49:32.081Z,0.00
2023-02-20T08:50:35.554Z,0.00
2023-02-20T08:51:38.848Z,0.43
2023-02-20T08:52:42.444Z,0.67
2023-02-20T08:53:45.808Z,0.00
2023-02-20T08:54:49.943Z,0.00
2023-02-20T08:55:53.700Z,0.00
2023-02-20T08:56:57.050Z,0.00
2023-02-20T08:58:00.640Z,0.00
2023-02-20T08:59:04.089Z,0.00
2023-02-20T09:00:07.349Z,0.00
2023-02-20T09:01:10.662Z,0.00
2023-02-20T09:02:14.032Z,0.00
2023-02-20T09:03:17.422Z,0.43
2023-02-20T09:04:20.692Z,1.00
2023-02-20T09:05:24.203Z,0.57
2023-02-20T09:06:27.513Z,0.00
2023-02-20T09:07:30.965Z,0.00
2023-02-20T09:08:34.547Z,0.00
2023-02-20T09:09:38.244Z,0.00
2023-02-20T09:10:41.729Z,0.00
2023-02-20T09:11:45.527Z,0.00
2023-02-20T09:12:48.632Z,0.00
2023-02-20T09:13:52.020Z,0.00
2023-02-20T09:14:55.488Z,0.00
2023-02-20T09:15:58.872Z,0.00
2023-02-20T09:17:02.472Z,0.00
2023-02-20T09:18:05.973Z,0.43
2023-02-20T09:19:09.495Z,0.57
2023-02-20T09:20:12.732Z,0.00
2023-02-20T09:21:16.416Z,0.00
2023-02-20T09:22:19.710Z,0.00
2023-02-20T09:23:23.189Z,0.00
2023-02-20T09:24:26.991Z,0.00
2023-02-20T09:25:30.577Z,0.00
2023-02-20T09:26:34.079Z,0.00
2023-02-20T09:27:37.557Z,0.43
2023-02-20T09:28:40.765Z,0.25
2023-02-20T09:29:43.923Z,0.00
2023-02-20T09:30:47.044Z,0.00
2023-02-20T09:31:50.186Z,0.00
2023-02-20T09:32:53.368Z,0.00
2023-02-20T09:33:56.333Z,0.00
2023-02-20T09:34:59.535Z,0.00
2023-02-20T09:36:02.810Z,0.00
2023-02-20T09:37:05.894Z,0.00
2023-02-20T09:38:09.559Z,0.00
2023-02-20T09:39:12.738Z,0.57
2023-02-20T09:40:15.839Z,0.00
2023-02-20T09:41:18.929Z,0.00
2023-02-20T09:42:22.110Z,0.00
2023-02-20T09:43:25.288Z,0.00
2023-02-20T09:44:28.315Z,0.00
2023-02-20T09:45:31.412Z,0.00
2023-02-20T09:46:34.738Z,0.00
2023-02-20T09:47:38.007Z,0.00
2023-02-20T09:48:41.214Z,0.00
2023-02-20T09:49:44.276Z,0.00
2023-02-20T09:50:47.352Z,0.00
2023-02-20T09:51:50.467Z,0.00
2023-02-20T09:52:53.516Z,0.00
2023-02-20T09:53:56.654Z,0.00
2023-02-20T09:54:59.873Z,0.00
2023-02-20T09:56:03.026Z,0.00
2023-02-20T09:57:06.252Z,0.00
2023-02-20T09:58:09.343Z,0.00
2023-02-20T09:59:12.320Z,0.00
2023-02-20T10:00:15.396Z,0.00
2023-02-20T10:01:18.573Z,0.00
2023-02-20T10:02:21.811Z,0.43
2023-02-20T10:03:24.961Z,0.57
2023-02-20T10:04:28.318Z,0.14
2023-02-20T10:05:31.399Z,0.00
2023-02-20T10:06:34.664Z,0.00
2023-02-20T10:07:37.860Z,0.00
2023-02-20T10:08:40.943Z,0.33
2023-02-20T10:09:44.026Z,0.57
2023-02-20T10:10:47.309Z,0.43
2023-02-20T10:13:07.588Z,0.00
2023-02-20T10:14:11.281Z,0.00
2023-02-20T10:15:14.563Z,0.00
2023-02-20T10:16:18.086Z,0.00
2023-02-20T10:17:21.461Z,0.00
2023-02-20T10:18:24.874Z,0.00
2023-02-20T10:19:28.240Z,0.43
2023-02-20T10:20:31.732Z,0.57
2023-02-20T10:21:35.148Z,0.00
2023-02-20T10:22:38.483Z,0.00
2023-02-20T10:23:42.057Z,0.29
2023-02-20T10:24:45.267Z,0.00
2023-02-20T10:25:48.639Z,0.00
2023-02-20T10:26:52.083Z,0.00
2023-02-20T10:27:55.530Z,0.00
2023-02-20T10:28:58.835Z,0.00
2023-02-20T10:30:02.414Z,0.33
2023-02-20T10:31:05.836Z,0.71
2023-02-20T10:32:09.378Z,0.57
2023-02-20T10:33:12.967Z,0.00
2023-02-20T10:34:17.508Z,0.00
2023-02-20T10:35:20.934Z,0.00
2023-02-20T10:36:24.043Z,0.00
2023-02-20T10:37:29.639Z,0.00
2023-02-20T10:38:31.782Z,0.00
2023-02-20T10:39:35.375Z,0.43
2023-02-20T10:40:38.735Z,0.57
2023-02-20T10:41:42.240Z,0.00
2023-02-20T10:42:45.499Z,0.00
2023-02-20T10:43:48.982Z,0.00
2023-02-20T10:44:52.842Z,0.00
2023-02-20T10:45:56.438Z,0.00
2023-02-20T10:46:59.712Z,0.57
2023-02-20T10:48:03.125Z,0.00
2023-02-20T10:49:06.403Z,0.00
2023-02-20T10:50:09.704Z,0.00
2023-02-20T10:51:13.091Z,0.00
2023-02-20T10:52:29.518Z,0.00
2023-02-20T10:53:21.005Z,0.00
2023-02-20T10:54:24.623Z,0.43
2023-02-20T10:55:28.067Z,0.86
2023-02-20T10:56:31.476Z,0.57
2023-02-20T10:57:34.841Z,0.00
2023-02-20T10:58:38.191Z,0.29
2023-02-20T10:59:41.409Z,0.57
2023-02-20T11:00:45.009Z,0.57
2023-02-20T11:01:48.614Z,0.57
2023-02-20T11:02:55.344Z,0.57
2023-02-20T11:03:58.611Z,0.00
2023-02-20T11:05:02.252Z,0.00
2023-02-20T11:06:05.726Z,0.00
2023-02-20T11:07:09.111Z,0.14
2023-02-20T11:08:12.501Z,0.29
2023-02-20T11:09:15.602Z,0.00
2023-02-20T11:10:18.795Z,0.33
2023-02-20T11:11:21.846Z,0.57
2023-02-20T11:12:25.045Z,0.43
2023-02-20T11:13:28.305Z,0.00
2023-02-20T11:14:39.945Z,0.00
2023-02-20T11:15:35.966Z,0.00
2023-02-20T11:16:39.002Z,0.00
2023-02-20T11:17:42.069Z,0.33
2023-02-20T11:18:45.139Z,0.00
2023-02-20T11:19:48.413Z,0.00
2023-02-20T11:20:51.492Z,0.00
2023-02-20T11:21:54.635Z,0.43
2023-02-20T11:22:57.873Z,0.43
2023-02-20T11:24:00.949Z,0.00
2023-02-20T11:25:04.116Z,0.57
2023-02-20T11:26:07.112Z,0.00
2023-02-20T11:27:10.918Z,0.00
2023-02-20T11:28:14.258Z,0.00
2023-02-20T11:29:17.534Z,0.00
2023-02-20T11:30:20.965Z,0.00
2023-02-20T11:31:24.349Z,0.00
2023-02-20T11:32:27.751Z,0.00
2023-02-20T11:33:31.329Z,0.57
2023-02-20T11:34:34.599Z,1.00
2023-02-20T11:35:38.097Z,0.57
2023-02-20T11:36:41.375Z,0.29
2023-02-20T11:37:54.369Z,0.00
2023-02-20T11:38:49.113Z,0.00
2023-02-20T11:39:52.371Z,0.00
2023-02-20T11:40:55.636Z,0.00
2023-02-20T11:41:58.954Z,0.00
2023-02-20T11:43:02.522Z,0.33
2023-02-20T11:44:05.814Z,1.00
2023-02-20T11:45:09.205Z,0.29
2023-02-20T11:46:12.701Z,0.00
2023-02-20T11:47:16.261Z,0.00
2023-02-20T11:48:19.455Z,0.00
2023-02-20T11:49:23.446Z,0.00
2023-02-20T11:50:26.836Z,0.43
2023-02-20T11:51:30.231Z,0.57
2023-02-20T11:52:33.652Z,0.00
2023-02-20T11:53:36.899Z,0.00
2023-02-20T11:54:40.277Z,0.00
2023-02-20T11:55:46.521Z,0.00
2023-02-20T11:56:48.094Z,0.00
2023-02-20T11:57:51.376Z,0.00
2023-02-20T11:58:54.754Z,0.43
2023-02-20T11:59:57.934Z,0.57
2023-02-20T12:01:01.221Z,0.00
2023-02-20T12:02:04.711Z,0.00
2023-02-20T12:03:07.885Z,0.00
2023-02-20T12:04:11.232Z,0.00
2023-02-20T12:05:14.493Z,0.43
2023-02-20T12:06:18.010Z,0.43
2023-02-20T12:07:21.451Z,0.43
2023-02-20T12:08:24.952Z,0.14
2023-02-20T12:09:28.402Z,0.43
2023-02-20T12:10:31.825Z,0.00
2023-02-20T12:11:35.229Z,0.00
2023-02-20T12:12:38.424Z,0.14
2023-02-20T12:13:41.870Z,1.00
2023-02-20T12:14:45.266Z,0.57
2023-02-20T12:15:48.473Z,0.00
2023-02-20T12:16:51.956Z,0.57
2023-02-20T12:17:55.201Z,0.50
2023-02-20T12:18:58.592Z,0.57
2023-02-20T12:20:02.012Z,0.43
2023-02-20T12:21:05.436Z,0.57
2023-02-20T12:22:08.740Z,0.43
2023-02-20T12:23:11.992Z,0.67
2023-02-20T12:24:15.165Z,0.00
2023-02-20T12:25:18.501Z,0.17
2023-02-20T12:26:21.568Z,1.00
2023-02-20T12:27:24.669Z,0.57
2023-02-20T12:28:27.770Z,0.00
2023-02-20T12:29:30.804Z,0.17
2023-02-20T12:30:34.107Z,0.67
2023-02-20T12:31:37.366Z,0.43
2023-02-20T12:32:40.451Z,0.71
2023-02-20T12:33:43.762Z,0.33
2023-02-20T12:34:46.817Z,1.00
2023-02-20T12:35:49.913Z,0.67
2023-02-20T12:36:53.126Z,0.00
2023-02-20T12:37:56.208Z,0.43
2023-02-20T12:46:20.220Z,0.00
2023-02-20T12:47:23.256Z,0.00
2023-02-20T12:48:26.434Z,0.00
2023-02-20T12:49:29.529Z,0.00
2023-02-20T12:50:32.604Z,0.00
2023-02-20T12:51:35.791Z,0.00
2023-02-20T12:52:41.831Z,0.43
2023-02-20T12:53:45.115Z,0.13
2023-02-20T12:54:48.398Z,0.33
2023-02-20T12:55:51.786Z,1.00
2023-02-20T12:56:55.324Z,0.57
2023-02-20T12:57:58.711Z,0.00
2023-02-20T12:59:01.938Z,0.00
2023-02-20T13:00:05.252Z,0.57
2023-02-20T13:01:10.265Z,0.00
2023-02-20T13:02:13.126Z,0.50
2023-02-20T13:03:16.736Z,1.00
2023-02-20T13:04:19.877Z,0.14
2023-02-20T13:05:23.185Z,0.17
2023-02-20T13:06:26.482Z,0.67
2023-02-20T13:07:29.856Z,0.43
2023-02-20T13:08:33.158Z,0.57
2023-02-20T13:09:36.319Z,0.00
2023-02-20T13:10:39.614Z,0.00
2023-02-20T13:11:43.020Z,0.00
2023-02-20T13:12:46.194Z,0.43
2023-02-20T13:13:49.467Z,1.00
2023-02-20T13:14:52.723Z,1.00
2023-02-20T13:15:56.028Z,0.57
2023-02-20T13:16:59.437Z,0.00
2023-02-20T13:18:02.709Z,0.00
2023-02-20T13:19:05.996Z,0.29
2023-02-20T13:20:09.175Z,0.43
2023-02-20T13:21:12.565Z,0.43
2023-02-20T13:22:15.702Z,1.00
2023-02-20T13:23:19.027Z,0.57
2023-02-20T13:24:22.511Z,0.86
2023-02-20T13:25:25.903Z,0.43
2023-02-20T13:26:29.193Z,0.71
2023-02-20T13:27:32.508Z,1.00
2023-02-20T13:28:35.866Z,1.00
2023-02-20T13:29:39.137Z,0.43
2023-02-20T13:30:42.528Z,0.43
2023-02-20T13:31:46.288Z,0.57
2023-02-20T13:32:49.715Z,0.00
2023-02-20T13:33:53.007Z,0.86
2023-02-20T13:34:56.273Z,1.00
2023-02-20T13:35:59.715Z,0.57
2023-02-20T13:37:02.968Z,0.43
2023-02-20T13:38:06.491Z,0.14
2023-02-20T13:39:09.928Z,0.13
2023-02-20T13:40:13.201Z,0.57
2023-02-20T13:41:16.702Z,0.86
2023-02-20T13:42:19.996Z,1.00
2023-02-20T13:43:23.164Z,1.00
2023-02-20T13:44:26.365Z,0.00
2023-02-20T13:45:29.529Z,0.00
2023-02-20T13:46:32.973Z,0.43
2023-02-20T13:47:36.363Z,1.00
2023-02-20T13:48:39.691Z,0.57
2023-02-20T13:49:43.190Z,0.33
2023-02-20T13:50:46.353Z,1.00
2023-02-20T13:51:49.752Z,0.71
2023-02-20T13:52:52.926Z,0.71
2023-02-20T13:53:56.115Z,0.57
2023-02-20T13:54:59.224Z,0.43
2023-02-20T13:56:02.233Z,1.00
2023-02-20T13:57:05.460Z,1.00
2023-02-20T13:58:08.515Z,0.57
2023-02-20T13:59:11.829Z,1.00
2023-02-20T14:00:15.003Z,1.00
2023-02-20T14:01:18.373Z,0.57
2023-02-20T14:02:21.358Z,1.00
2023-02-20T14:03:24.434Z,0.83
2023-02-20T14:04:27.612Z,0.67
2023-02-20T14:05:30.712Z,0.29
2023-02-20T14:06:33.886Z,0.57
2023-02-20T14:07:36.980Z,0.14
2023-02-20T14:08:40.249Z,0.57
2023-02-20T14:09:43.228Z,0.43
2023-02-20T14:10:46.311Z,0.67
2023-02-20T14:11:49.385Z,0.33
2023-02-20T14:12:52.573Z,1.00
2023-02-20T14:13:56.369Z,0.57
2023-02-20T14:14:59.880Z,0.50
2023-02-20T14:16:03.233Z,0.43
2023-02-20T14:17:06.468Z,1.00
2023-02-20T14:18:09.801Z,1.00
2023-02-20T14:19:13.211Z,1.00
2023-02-20T14:20:16.635Z,0.67
2023-02-20T14:21:19.860Z,0.71
2023-02-20T14:22:23.387Z,1.00
2023-02-20T14:23:26.649Z,0.71
2023-02-20T14:24:29.846Z,0.00
2023-02-20T14:25:33.110Z,0.86
2023-02-20T14:26:36.181Z,0.86
2023-02-20T14:27:39.490Z,0.57
2023-02-20T14:28:42.760Z,0.43
2023-02-20T14:29:46.132Z,1.00
2023-02-20T14:30:49.515Z,1.00
2023-02-20T14:31:53.172Z,0.57